sensor_id;sensor_type;location;lat;lon;timestamp;temperature;humidity
37408;DHT22;24866;50.248;8.252;2022-11-13T00:01:45;3.10;99.90
37408;DHT22;24866;50.248;8.252;2022-11-13T00:04:15;3.10;99.90
37408;DHT22;24866;50.248;8.252;2022-11-13T00:06:46;3.10;99.90
37408;DHT22;24866;50.248;8.252;2022-11-13T00:09:16;3.20;99.90
37408;DHT22;24866;50.248;8.252;2022-11-13T00:11:46;3.20;99.90
37408;DHT22;24866;50.248;8.252;2022-11-13T00:14:16;3.10;99.90
37408;DHT22;24866;50.248;8.252;2022-11-13T00:16:46;3.10;99.90
37408;DHT22;24866;50.248;8.252;2022-11-13T00:19:17;3.00;99.90
37408;DHT22;24866;50.248;8.252;2022-11-13T00:21:48;3.00;99.90
37408;DHT22;24866;50.248;8.252;2022-11-13T00:24:18;3.10;99.90
37408;DHT22;24866;50.248;8.252;2022-11-13T00:26:48;3.10;99.90
37408;DHT22;24866;50.248;8.252;2022-11-13T00:29:18;3.00;99.90
37408;DHT22;24866;50.248;8.252;2022-11-13T00:31:47;2.90;99.90
37408;DHT22;24866;50.248;8.252;2022-11-13T00:34:17;2.90;99.90
37408;DHT22;24866;50.248;8.252;2022-11-13T00:36:49;2.90;99.90
37408;DHT22;24866;50.248;8.252;2022-11-13T00:39:19;3.00;99.90
37408;DHT22;24866;50.248;8.252;2022-11-13T00:41:49;3.10;99.90
37408;DHT22;24866;50.248;8.252;2022-11-13T00:44:19;3.10;99.90
37408;DHT22;24866;50.248;8.252;2022-11-13T00:46:49;3.10;99.90
37408;DHT22;24866;50.248;8.252;2022-11-13T00:49:19;3.00;99.90
37408;DHT22;24866;50.248;8.252;2022-11-13T00:51:51;3.20;99.90
37408;DHT22;24866;50.248;8.252;2022-11-13T00:54:20;3.20;99.90
37408;DHT22;24866;50.248;8.252;2022-11-13T00:56:50;2.80;99.90
37408;DHT22;24866;50.248;8.252;2022-11-13T00:59:20;2.60;99.90
37408;DHT22;24866;50.248;8.252;2022-11-13T01:01:50;2.60;99.90
37408;DHT22;24866;50.248;8.252;2022-11-13T01:04:20;2.80;99.90
37408;DHT22;24866;50.248;8.252;2022-11-13T01:06:52;2.80;99.90
37408;DHT22;24866;50.248;8.252;2022-11-13T01:09:22;2.90;99.90
37408;DHT22;24866;50.248;8.252;2022-11-13T01:11:52;2.90;99.90
37408;DHT22;24866;50.248;8.252;2022-11-13T01:14:22;2.90;99.90
37408;DHT22;24866;50.248;8.252;2022-11-13T01:16:52;2.90;99.90
37408;DHT22;24866;50.248;8.252;2022-11-13T01:19:22;2.80;99.90
37408;DHT22;24866;50.248;8.252;2022-11-13T01:21:53;2.70;99.90
37408;DHT22;24866;50.248;8.252;2022-11-13T01:24:23;2.70;99.90
37408;DHT22;24866;50.248;8.252;2022-11-13T01:26:53;2.70;99.90
37408;DHT22;24866;50.248;8.252;2022-11-13T01:29:23;2.70;99.90
37408;DHT22;24866;50.248;8.252;2022-11-13T01:31:53;2.70;99.90
37408;DHT22;24866;50.248;8.252;2022-11-13T01:34:23;2.80;99.90
37408;DHT22;24866;50.248;8.252;2022-11-13T01:36:54;2.40;99.90
37408;DHT22;24866;50.248;8.252;2022-11-13T01:39:24;2.50;99.90
37408;DHT22;24866;50.248;8.252;2022-11-13T01:41:54;2.50;99.90
37408;DHT22;24866;50.248;8.252;2022-11-13T01:44:24;2.40;99.90
37408;DHT22;24866;50.248;8.252;2022-11-13T01:46:55;2.30;99.90
37408;DHT22;24866;50.248;8.252;2022-11-13T01:49:28;2.30;99.90
37408;DHT22;24866;50.248;8.252;2022-11-13T01:52:02;2.40;99.90
37408;DHT22;24866;50.248;8.252;2022-11-13T01:54:35;2.00;99.90
37408;DHT22;24866;50.248;8.252;2022-11-13T01:57:06;2.10;99.90
37408;DHT22;24866;50.248;8.252;2022-11-13T01:59:39;2.00;99.90
37408;DHT22;24866;50.248;8.252;2022-11-13T02:02:09;2.10;99.90
37408;DHT22;24866;50.248;8.252;2022-11-13T02:04:39;2.20;99.90
37408;DHT22;24866;50.248;8.252;2022-11-13T02:07:13;2.30;99.90
37408;DHT22;24866;50.248;8.252;2022-11-13T02:09:45;2.20;99.90
37408;DHT22;24866;50.248;8.252;2022-11-13T02:12:19;2.20;99.90
37408;DHT22;24866;50.248;8.252;2022-11-13T02:14:52;2.20;99.90
37408;DHT22;24866;50.248;8.252;2022-11-13T02:17:26;2.30;99.90
37408;DHT22;24866;50.248;8.252;2022-11-13T02:20:00;2.40;99.90
37408;DHT22;24866;50.248;8.252;2022-11-13T02:22:35;2.40;99.90
37408;DHT22;24866;50.248;8.252;2022-11-13T02:25:09;2.40;99.90
37408;DHT22;24866;50.248;8.252;2022-11-13T02:27:42;2.20;99.90
37408;DHT22;24866;50.248;8.252;2022-11-13T02:30:16;2.20;99.90
37408;DHT22;24866;50.248;8.252;2022-11-13T02:32:48;2.20;99.90
37408;DHT22;24866;50.248;8.252;2022-11-13T02:35:20;2.00;99.90
37408;DHT22;24866;50.248;8.252;2022-11-13T02:37:51;2.00;99.90
37408;DHT22;24866;50.248;8.252;2022-11-13T02:40:24;1.90;99.90
37408;DHT22;24866;50.248;8.252;2022-11-13T02:42:54;2.00;99.90
37408;DHT22;24866;50.248;8.252;2022-11-13T02:45:24;2.00;99.90
37408;DHT22;24866;50.248;8.252;2022-11-13T02:47:54;1.90;99.90
37408;DHT22;24866;50.248;8.252;2022-11-13T02:50:24;1.90;99.90
37408;DHT22;24866;50.248;8.252;2022-11-13T02:52:54;2.00;99.90
37408;DHT22;24866;50.248;8.252;2022-11-13T02:55:26;2.20;99.90
37408;DHT22;24866;50.248;8.252;2022-11-13T02:57:55;2.40;99.90
37408;DHT22;24866;50.248;8.252;2022-11-13T03:00:25;2.20;99.90
37408;DHT22;24866;50.248;8.252;2022-11-13T03:02:52;2.20;99.90
37408;DHT22;24866;50.248;8.252;2022-11-13T03:05:23;2.10;99.90
37408;DHT22;24866;50.248;8.252;2022-11-13T03:07:53;2.10;99.90
37408;DHT22;24866;50.248;8.252;2022-11-13T03:10:23;2.20;99.90
37408;DHT22;24866;50.248;8.252;2022-11-13T03:12:54;2.10;99.90
37408;DHT22;24866;50.248;8.252;2022-11-13T03:15:24;2.10;99.90
37408;DHT22;24866;50.248;8.252;2022-11-13T03:17:54;2.10;99.90
37408;DHT22;24866;50.248;8.252;2022-11-13T03:20:24;2.10;99.90
37408;DHT22;24866;50.248;8.252;2022-11-13T03:22:53;1.80;99.90
37408;DHT22;24866;50.248;8.252;2022-11-13T03:25:23;1.80;99.90
37408;DHT22;24866;50.248;8.252;2022-11-13T03:27:55;1.80;99.90
37408;DHT22;24866;50.248;8.252;2022-11-13T03:30:25;2.00;99.90
37408;DHT22;24866;50.248;8.252;2022-11-13T03:32:56;1.90;99.90
37408;DHT22;24866;50.248;8.252;2022-11-13T03:35:25;1.90;99.90
37408;DHT22;24866;50.248;8.252;2022-11-13T03:37:56;2.00;99.90
37408;DHT22;24866;50.248;8.252;2022-11-13T03:40:26;1.90;99.90
37408;DHT22;24866;50.248;8.252;2022-11-13T03:42:57;1.70;99.90
37408;DHT22;24866;50.248;8.252;2022-11-13T03:45:27;1.70;99.90
37408;DHT22;24866;50.248;8.252;2022-11-13T03:47:57;1.60;99.90
37408;DHT22;24866;50.248;8.252;2022-11-13T03:50:27;1.80;99.90
37408;DHT22;24866;50.248;8.252;2022-11-13T03:52:57;1.60;99.90
37408;DHT22;24866;50.248;8.252;2022-11-13T03:55:27;1.50;99.90
37408;DHT22;24866;50.248;8.252;2022-11-13T03:57:58;1.50;99.90
37408;DHT22;24866;50.248;8.252;2022-11-13T04:00:28;1.60;99.90
37408;DHT22;24866;50.248;8.252;2022-11-13T04:02:58;1.70;99.90
37408;DHT22;24866;50.248;8.252;2022-11-13T04:05:28;1.80;99.90
37408;DHT22;24866;50.248;8.252;2022-11-13T04:07:58;1.70;99.90
37408;DHT22;24866;50.248;8.252;2022-11-13T04:10:28;1.70;99.90
37408;DHT22;24866;50.248;8.252;2022-11-13T04:12:59;1.80;99.90
37408;DHT22;24866;50.248;8.252;2022-11-13T04:15:29;1.80;99.90
37408;DHT22;24866;50.248;8.252;2022-11-13T04:17:59;1.80;99.90
37408;DHT22;24866;50.248;8.252;2022-11-13T04:20:29;1.90;99.90
37408;DHT22;24866;50.248;8.252;2022-11-13T04:22:59;1.90;99.90
37408;DHT22;24866;50.248;8.252;2022-11-13T04:25:29;1.60;99.90
37408;DHT22;24866;50.248;8.252;2022-11-13T04:28:00;1.50;99.90
37408;DHT22;24866;50.248;8.252;2022-11-13T04:30:30;1.60;99.90
37408;DHT22;24866;50.248;8.252;2022-11-13T04:32:59;1.50;99.90
37408;DHT22;24866;50.248;8.252;2022-11-13T04:35:29;1.60;99.90
37408;DHT22;24866;50.248;8.252;2022-11-13T04:37:59;1.70;99.90
37408;DHT22;24866;50.248;8.252;2022-11-13T04:40:29;1.60;99.90
37408;DHT22;24866;50.248;8.252;2022-11-13T04:43:00;1.70;99.90
37408;DHT22;24866;50.248;8.252;2022-11-13T04:45:29;1.60;99.90
37408;DHT22;24866;50.248;8.252;2022-11-13T04:47:59;1.60;99.90
37408;DHT22;24866;50.248;8.252;2022-11-13T04:50:29;1.60;99.90
37408;DHT22;24866;50.248;8.252;2022-11-13T04:52:59;1.50;99.90
37408;DHT22;24866;50.248;8.252;2022-11-13T04:55:29;1.40;99.90
37408;DHT22;24866;50.248;8.252;2022-11-13T04:58:00;1.50;99.90
37408;DHT22;24866;50.248;8.252;2022-11-13T05:00:30;1.50;99.90
37408;DHT22;24866;50.248;8.252;2022-11-13T05:03:00;1.40;99.90
37408;DHT22;24866;50.248;8.252;2022-11-13T05:05:30;1.40;99.90
37408;DHT22;24866;50.248;8.252;2022-11-13T05:07:59;1.20;99.90
37408;DHT22;24866;50.248;8.252;2022-11-13T05:10:29;1.30;99.90
37408;DHT22;24866;50.248;8.252;2022-11-13T05:13:00;1.10;99.90
37408;DHT22;24866;50.248;8.252;2022-11-13T05:15:30;1.00;99.90
37408;DHT22;24866;50.248;8.252;2022-11-13T05:18:00;1.00;99.90
37408;DHT22;24866;50.248;8.252;2022-11-13T05:20:30;1.10;99.90
37408;DHT22;24866;50.248;8.252;2022-11-13T05:23:00;1.10;99.90
37408;DHT22;24866;50.248;8.252;2022-11-13T05:25:30;1.20;99.90
37408;DHT22;24866;50.248;8.252;2022-11-13T05:28:02;1.20;99.90
37408;DHT22;24866;50.248;8.252;2022-11-13T05:30:31;1.30;99.90
37408;DHT22;24866;50.248;8.252;2022-11-13T05:33:01;1.30;99.90
37408;DHT22;24866;50.248;8.252;2022-11-13T05:35:31;1.10;99.90
37408;DHT22;24866;50.248;8.252;2022-11-13T05:38:02;1.20;99.90
37408;DHT22;24866;50.248;8.252;2022-11-13T05:40:32;1.40;99.90
37408;DHT22;24866;50.248;8.252;2022-11-13T05:43:04;1.40;99.90
37408;DHT22;24866;50.248;8.252;2022-11-13T05:45:33;1.40;99.90
37408;DHT22;24866;50.248;8.252;2022-11-13T05:48:04;1.40;99.90
37408;DHT22;24866;50.248;8.252;2022-11-13T05:50:33;1.20;99.90
37408;DHT22;24866;50.248;8.252;2022-11-13T05:53:03;1.30;99.90
37408;DHT22;24866;50.248;8.252;2022-11-13T05:55:33;1.20;99.90
37408;DHT22;24866;50.248;8.252;2022-11-13T05:58:05;1.10;99.90
37408;DHT22;24866;50.248;8.252;2022-11-13T06:00:34;1.10;99.90
37408;DHT22;24866;50.248;8.252;2022-11-13T06:03:04;1.30;99.90
37408;DHT22;24866;50.248;8.252;2022-11-13T06:05:34;1.20;99.90
37408;DHT22;24866;50.248;8.252;2022-11-13T06:08:04;1.20;99.90
37408;DHT22;24866;50.248;8.252;2022-11-13T06:10:34;1.10;99.90
37408;DHT22;24866;50.248;8.252;2022-11-13T06:13:05;1.20;99.90
37408;DHT22;24866;50.248;8.252;2022-11-13T06:15:35;1.20;99.90
37408;DHT22;24866;50.248;8.252;2022-11-13T06:18:05;1.20;99.90
37408;DHT22;24866;50.248;8.252;2022-11-13T06:20:36;1.20;99.90
37408;DHT22;24866;50.248;8.252;2022-11-13T06:23:06;1.10;99.90
37408;DHT22;24866;50.248;8.252;2022-11-13T06:25:35;1.00;99.90
37408;DHT22;24866;50.248;8.252;2022-11-13T06:28:07;1.00;99.90
37408;DHT22;24866;50.248;8.252;2022-11-13T06:30:37;0.90;99.90
37408;DHT22;24866;50.248;8.252;2022-11-13T06:33:06;0.80;99.90
37408;DHT22;24866;50.248;8.252;2022-11-13T06:35:36;0.90;99.90
37408;DHT22;24866;50.248;8.252;2022-11-13T06:38:06;1.00;99.90
37408;DHT22;24866;50.248;8.252;2022-11-13T06:40:37;0.90;99.90
37408;DHT22;24866;50.248;8.252;2022-11-13T06:43:08;0.90;99.90
37408;DHT22;24866;50.248;8.252;2022-11-13T06:45:38;1.00;99.90
37408;DHT22;24866;50.248;8.252;2022-11-13T06:48:08;0.90;99.90
37408;DHT22;24866;50.248;8.252;2022-11-13T06:50:38;0.90;99.90
37408;DHT22;24866;50.248;8.252;2022-11-13T06:53:08;0.90;99.90
37408;DHT22;24866;50.248;8.252;2022-11-13T06:55:42;0.90;99.90
37408;DHT22;24866;50.248;8.252;2022-11-13T06:58:14;1.00;99.90
37408;DHT22;24866;50.248;8.252;2022-11-13T07:00:44;1.10;99.90
37408;DHT22;24866;50.248;8.252;2022-11-13T07:03:15;1.10;99.90
37408;DHT22;24866;50.248;8.252;2022-11-13T07:05:45;1.00;99.90
37408;DHT22;24866;50.248;8.252;2022-11-13T07:08:16;1.00;99.90
37408;DHT22;24866;50.248;8.252;2022-11-13T07:10:52;1.10;99.90
37408;DHT22;24866;50.248;8.252;2022-11-13T07:13:25;1.10;99.90
37408;DHT22;24866;50.248;8.252;2022-11-13T07:16:00;0.90;99.90
37408;DHT22;24866;50.248;8.252;2022-11-13T07:18:30;0.90;99.90
37408;DHT22;24866;50.248;8.252;2022-11-13T07:21:03;1.10;99.90
37408;DHT22;24866;50.248;8.252;2022-11-13T07:23:35;1.20;99.90
37408;DHT22;24866;50.248;8.252;2022-11-13T07:26:09;1.10;99.90
37408;DHT22;24866;50.248;8.252;2022-11-13T07:28:40;1.20;99.90
37408;DHT22;24866;50.248;8.252;2022-11-13T07:31:11;1.30;99.90
37408;DHT22;24866;50.248;8.252;2022-11-13T07:33:42;1.30;99.90
37408;DHT22;24866;50.248;8.252;2022-11-13T07:36:12;1.10;99.90
37408;DHT22;24866;50.248;8.252;2022-11-13T07:38:42;1.20;99.90
37408;DHT22;24866;50.248;8.252;2022-11-13T07:41:12;1.30;99.90
37408;DHT22;24866;50.248;8.252;2022-11-13T07:43:43;1.40;99.90
37408;DHT22;24866;50.248;8.252;2022-11-13T07:46:13;1.50;99.90
37408;DHT22;24866;50.248;8.252;2022-11-13T07:48:42;1.60;99.90
37408;DHT22;24866;50.248;8.252;2022-11-13T07:51:12;1.80;99.90
37408;DHT22;24866;50.248;8.252;2022-11-13T07:53:42;1.90;99.90
37408;DHT22;24866;50.248;8.252;2022-11-13T07:56:12;2.00;99.90
37408;DHT22;24866;50.248;8.252;2022-11-13T07:58:43;2.20;99.90
37408;DHT22;24866;50.248;8.252;2022-11-13T08:01:13;2.40;99.90
37408;DHT22;24866;50.248;8.252;2022-11-13T08:03:43;2.60;99.90
37408;DHT22;24866;50.248;8.252;2022-11-13T08:06:13;2.70;99.90
37408;DHT22;24866;50.248;8.252;2022-11-13T08:08:46;2.80;99.90
37408;DHT22;24866;50.248;8.252;2022-11-13T08:11:16;2.80;99.90
37408;DHT22;24866;50.248;8.252;2022-11-13T08:13:47;3.00;99.90
37408;DHT22;24866;50.248;8.252;2022-11-13T08:16:17;3.20;99.90
37408;DHT22;24866;50.248;8.252;2022-11-13T08:18:47;3.30;99.90
37408;DHT22;24866;50.248;8.252;2022-11-13T08:21:17;3.50;99.90
37408;DHT22;24866;50.248;8.252;2022-11-13T08:23:48;3.70;99.90
37408;DHT22;24866;50.248;8.252;2022-11-13T08:26:18;3.80;99.90
37408;DHT22;24866;50.248;8.252;2022-11-13T08:28:50;3.80;99.90
37408;DHT22;24866;50.248;8.252;2022-11-13T08:31:20;3.90;99.90
37408;DHT22;24866;50.248;8.252;2022-11-13T08:33:50;4.10;99.90
37408;DHT22;24866;50.248;8.252;2022-11-13T08:36:20;4.20;99.90
37408;DHT22;24866;50.248;8.252;2022-11-13T08:38:50;4.30;99.90
37408;DHT22;24866;50.248;8.252;2022-11-13T08:41:20;4.60;99.90
37408;DHT22;24866;50.248;8.252;2022-11-13T08:43:52;4.90;99.90
37408;DHT22;24866;50.248;8.252;2022-11-13T08:46:22;5.20;99.90
37408;DHT22;24866;50.248;8.252;2022-11-13T08:48:52;5.40;99.90
37408;DHT22;24866;50.248;8.252;2022-11-13T08:51:23;5.50;99.90
37408;DHT22;24866;50.248;8.252;2022-11-13T08:53:53;5.70;99.90
37408;DHT22;24866;50.248;8.252;2022-11-13T08:56:23;5.70;99.90
37408;DHT22;24866;50.248;8.252;2022-11-13T08:58:55;5.70;99.90
37408;DHT22;24866;50.248;8.252;2022-11-13T09:01:26;6.00;99.90
37408;DHT22;24866;50.248;8.252;2022-11-13T09:03:56;6.10;99.90
37408;DHT22;24866;50.248;8.252;2022-11-13T09:06:26;6.20;99.90
37408;DHT22;24866;50.248;8.252;2022-11-13T09:08:56;6.30;99.90
37408;DHT22;24866;50.248;8.252;2022-11-13T09:11:27;6.50;99.90
37408;DHT22;24866;50.248;8.252;2022-11-13T09:13:59;6.70;99.90
37408;DHT22;24866;50.248;8.252;2022-11-13T09:16:29;6.80;99.90
37408;DHT22;24866;50.248;8.252;2022-11-13T09:19:00;6.90;99.90
37408;DHT22;24866;50.248;8.252;2022-11-13T09:21:30;7.20;99.90
37408;DHT22;24866;50.248;8.252;2022-11-13T09:24:00;7.40;99.90
37408;DHT22;24866;50.248;8.252;2022-11-13T09:26:32;7.60;99.90
37408;DHT22;24866;50.248;8.252;2022-11-13T09:29:04;7.80;99.90
37408;DHT22;24866;50.248;8.252;2022-11-13T09:31:34;7.70;99.90
37408;DHT22;24866;50.248;8.252;2022-11-13T09:34:06;7.90;99.90
37408;DHT22;24866;50.248;8.252;2022-11-13T09:36:36;8.30;99.90
37408;DHT22;24866;50.248;8.252;2022-11-13T09:39:06;8.50;99.90
37408;DHT22;24866;50.248;8.252;2022-11-13T09:41:38;8.20;99.90
37408;DHT22;24866;50.248;8.252;2022-11-13T09:44:15;7.90;99.90
37408;DHT22;24866;50.248;8.252;2022-11-13T09:46:49;8.00;99.90
37408;DHT22;24866;50.248;8.252;2022-11-13T09:49:24;8.20;99.90
37408;DHT22;24866;50.248;8.252;2022-11-13T09:51:58;8.50;99.90
37408;DHT22;24866;50.248;8.252;2022-11-13T09:54:28;8.50;99.90
37408;DHT22;24866;50.248;8.252;2022-11-13T09:57:14;8.30;99.90
37408;DHT22;24866;50.248;8.252;2022-11-13T09:59:52;8.50;99.90
37408;DHT22;24866;50.248;8.252;2022-11-13T10:02:34;8.90;99.90
37408;DHT22;24866;50.248;8.252;2022-11-13T10:05:13;9.00;99.90
37408;DHT22;24866;50.248;8.252;2022-11-13T10:07:52;9.30;99.90
37408;DHT22;24866;50.248;8.252;2022-11-13T10:10:43;9.20;99.90
37408;DHT22;24866;50.248;8.252;2022-11-13T10:13:17;9.50;99.90
37408;DHT22;24866;50.248;8.252;2022-11-13T10:15:51;9.60;99.90
37408;DHT22;24866;50.248;8.252;2022-11-13T10:18:27;9.70;99.90
37408;DHT22;24866;50.248;8.252;2022-11-13T10:21:08;9.10;99.90
37408;DHT22;24866;50.248;8.252;2022-11-13T10:23:38;9.20;99.90
37408;DHT22;24866;50.248;8.252;2022-11-13T10:26:13;9.60;99.90
37408;DHT22;24866;50.248;8.252;2022-11-13T10:28:45;9.80;99.90
37408;DHT22;24866;50.248;8.252;2022-11-13T10:31:16;9.80;99.90
37408;DHT22;24866;50.248;8.252;2022-11-13T10:33:47;9.70;99.90
37408;DHT22;24866;50.248;8.252;2022-11-13T10:36:25;10.00;99.90
37408;DHT22;24866;50.248;8.252;2022-11-13T10:39:04;10.10;99.90
37408;DHT22;24866;50.248;8.252;2022-11-13T10:41:45;10.80;99.90
37408;DHT22;24866;50.248;8.252;2022-11-13T10:44:27;11.10;99.90
37408;DHT22;24866;50.248;8.252;2022-11-13T10:47:08;11.50;99.90
37408;DHT22;24866;50.248;8.252;2022-11-13T10:49:42;11.60;99.90
37408;DHT22;24866;50.248;8.252;2022-11-13T10:52:17;11.60;99.90
37408;DHT22;24866;50.248;8.252;2022-11-13T10:54:48;11.80;99.90
37408;DHT22;24866;50.248;8.252;2022-11-13T10:57:27;12.20;99.90
37408;DHT22;24866;50.248;8.252;2022-11-13T10:59:57;12.40;99.90
37408;DHT22;24866;50.248;8.252;2022-11-13T11:02:30;12.60;99.90
37408;DHT22;24866;50.248;8.252;2022-11-13T11:05:02;12.60;99.90
37408;DHT22;24866;50.248;8.252;2022-11-13T11:07:38;12.70;99.90
37408;DHT22;24866;50.248;8.252;2022-11-13T11:10:21;12.80;99.90
37408;DHT22;24866;50.248;8.252;2022-11-13T11:12:52;13.00;99.90
37408;DHT22;24866;50.248;8.252;2022-11-13T11:15:25;12.70;99.90
37408;DHT22;24866;50.248;8.252;2022-11-13T11:18:00;12.40;99.90
37408;DHT22;24866;50.248;8.252;2022-11-13T11:20:43;12.70;99.90
37408;DHT22;24866;50.248;8.252;2022-11-13T11:23:23;12.30;99.90
37408;DHT22;24866;50.248;8.252;2022-11-13T11:25:57;12.00;99.90
37408;DHT22;24866;50.248;8.252;2022-11-13T11:28:31;11.90;99.90
37408;DHT22;24866;50.248;8.252;2022-11-13T11:31:10;12.30;99.90
37408;DHT22;24866;50.248;8.252;2022-11-13T11:33:50;12.50;99.90
37408;DHT22;24866;50.248;8.252;2022-11-13T11:36:27;12.50;99.90
37408;DHT22;24866;50.248;8.252;2022-11-13T11:39:04;12.70;99.90
37408;DHT22;24866;50.248;8.252;2022-11-13T11:41:39;13.40;99.90
37408;DHT22;24866;50.248;8.252;2022-11-13T11:44:15;13.40;99.90
37408;DHT22;24866;50.248;8.252;2022-11-13T11:46:47;13.40;99.90
37408;DHT22;24866;50.248;8.252;2022-11-13T11:49:19;13.10;99.90
37408;DHT22;24866;50.248;8.252;2022-11-13T11:51:52;13.30;99.90
37408;DHT22;24866;50.248;8.252;2022-11-13T11:54:34;13.30;99.90
37408;DHT22;24866;50.248;8.252;2022-11-13T11:57:22;13.30;99.90
37408;DHT22;24866;50.248;8.252;2022-11-13T12:00:02;13.20;99.90
37408;DHT22;24866;50.248;8.252;2022-11-13T12:02:46;12.90;99.90
37408;DHT22;24866;50.248;8.252;2022-11-13T12:05:27;12.70;99.90
37408;DHT22;24866;50.248;8.252;2022-11-13T12:08:07;12.90;99.90
37408;DHT22;24866;50.248;8.252;2022-11-13T12:10:44;13.10;99.90
37408;DHT22;24866;50.248;8.252;2022-11-13T12:13:33;13.30;99.90
37408;DHT22;24866;50.248;8.252;2022-11-13T12:16:09;13.20;99.90
37408;DHT22;24866;50.248;8.252;2022-11-13T12:18:48;13.00;99.90
37408;DHT22;24866;50.248;8.252;2022-11-13T12:21:30;13.10;99.90
37408;DHT22;24866;50.248;8.252;2022-11-13T12:24:17;13.80;99.90
37408;DHT22;24866;50.248;8.252;2022-11-13T12:27:03;14.50;99.90
37408;DHT22;24866;50.248;8.252;2022-11-13T12:29:47;14.00;99.90
37408;DHT22;24866;50.248;8.252;2022-11-13T12:32:31;13.90;99.90
37408;DHT22;24866;50.248;8.252;2022-11-13T12:35:06;13.70;99.90
37408;DHT22;24866;50.248;8.252;2022-11-13T12:37:42;13.40;99.90
37408;DHT22;24866;50.248;8.252;2022-11-13T12:40:20;13.60;99.90
37408;DHT22;24866;50.248;8.252;2022-11-13T12:42:59;13.90;99.90
37408;DHT22;24866;50.248;8.252;2022-11-13T12:45:48;14.50;99.90
37408;DHT22;24866;50.248;8.252;2022-11-13T12:48:25;14.90;99.90
37408;DHT22;24866;50.248;8.252;2022-11-13T12:50:57;14.50;99.90
37408;DHT22;24866;50.248;8.252;2022-11-13T12:53:30;14.60;99.90
37408;DHT22;24866;50.248;8.252;2022-11-13T12:56:31;14.20;99.90
37408;DHT22;24866;50.248;8.252;2022-11-13T13:02:00;14.60;99.90
37408;DHT22;24866;50.248;8.252;2022-11-13T13:04:47;14.70;99.90
37408;DHT22;24866;50.248;8.252;2022-11-13T13:07:36;14.90;99.90
37408;DHT22;24866;50.248;8.252;2022-11-13T13:10:15;14.50;99.90
37408;DHT22;24866;50.248;8.252;2022-11-13T13:12:55;14.80;99.90
37408;DHT22;24866;50.248;8.252;2022-11-13T13:15:31;14.90;99.90
37408;DHT22;24866;50.248;8.252;2022-11-13T13:18:04;14.80;99.90
37408;DHT22;24866;50.248;8.252;2022-11-13T13:20:34;15.00;99.90
37408;DHT22;24866;50.248;8.252;2022-11-13T13:23:05;15.30;99.90
37408;DHT22;24866;50.248;8.252;2022-11-13T13:25:40;14.50;99.90
37408;DHT22;24866;50.248;8.252;2022-11-13T13:28:18;14.20;99.90
37408;DHT22;24866;50.248;8.252;2022-11-13T13:30:58;14.90;99.90
37408;DHT22;24866;50.248;8.252;2022-11-13T13:33:39;14.60;99.90
37408;DHT22;24866;50.248;8.252;2022-11-13T13:36:19;13.80;99.90
37408;DHT22;24866;50.248;8.252;2022-11-13T13:38:58;13.80;99.90
37408;DHT22;24866;50.248;8.252;2022-11-13T13:41:44;14.30;99.90
37408;DHT22;24866;50.248;8.252;2022-11-13T13:44:27;14.30;99.90
37408;DHT22;24866;50.248;8.252;2022-11-13T13:47:02;14.70;99.90
37408;DHT22;24866;50.248;8.252;2022-11-13T13:49:35;15.10;99.90
37408;DHT22;24866;50.248;8.252;2022-11-13T13:52:05;14.90;99.90
37408;DHT22;24866;50.248;8.252;2022-11-13T13:54:36;14.60;99.90
37408;DHT22;24866;50.248;8.252;2022-11-13T13:57:13;14.10;99.90
37408;DHT22;24866;50.248;8.252;2022-11-13T13:59:44;13.80;99.90
37408;DHT22;24866;50.248;8.252;2022-11-13T14:02:16;13.70;99.90
37408;DHT22;24866;50.248;8.252;2022-11-13T14:04:47;13.70;99.90
37408;DHT22;24866;50.248;8.252;2022-11-13T14:07:20;13.80;99.90
37408;DHT22;24866;50.248;8.252;2022-11-13T14:10:05;14.50;99.90
37408;DHT22;24866;50.248;8.252;2022-11-13T14:12:40;13.90;99.90
37408;DHT22;24866;50.248;8.252;2022-11-13T14:15:23;14.30;99.90
37408;DHT22;24866;50.248;8.252;2022-11-13T14:18:04;14.70;99.90
37408;DHT22;24866;50.248;8.252;2022-11-13T14:20:40;14.40;99.90
37408;DHT22;24866;50.248;8.252;2022-11-13T14:23:13;14.40;99.90
37408;DHT22;24866;50.248;8.252;2022-11-13T14:25:44;13.90;99.90
37408;DHT22;24866;50.248;8.252;2022-11-13T14:28:19;14.40;99.90
37408;DHT22;24866;50.248;8.252;2022-11-13T14:30:54;14.50;99.90
37408;DHT22;24866;50.248;8.252;2022-11-13T14:33:29;14.40;99.90
37408;DHT22;24866;50.248;8.252;2022-11-13T14:36:00;14.20;99.90
37408;DHT22;24866;50.248;8.252;2022-11-13T14:38:32;14.20;99.90
37408;DHT22;24866;50.248;8.252;2022-11-13T14:41:03;14.30;99.90
37408;DHT22;24866;50.248;8.252;2022-11-13T14:43:35;14.10;99.90
37408;DHT22;24866;50.248;8.252;2022-11-13T14:46:05;14.30;99.90
37408;DHT22;24866;50.248;8.252;2022-11-13T14:48:52;14.00;99.90
37408;DHT22;24866;50.248;8.252;2022-11-13T14:51:24;14.00;99.90
37408;DHT22;24866;50.248;8.252;2022-11-13T14:53:57;13.90;99.90
37408;DHT22;24866;50.248;8.252;2022-11-13T14:56:33;13.90;99.90
37408;DHT22;24866;50.248;8.252;2022-11-13T14:59:09;14.00;99.90
37408;DHT22;24866;50.248;8.252;2022-11-13T15:01:40;14.00;99.90
37408;DHT22;24866;50.248;8.252;2022-11-13T15:04:23;13.30;99.90
37408;DHT22;24866;50.248;8.252;2022-11-13T15:06:59;13.30;99.90
37408;DHT22;24866;50.248;8.252;2022-11-13T15:09:29;12.80;99.90
37408;DHT22;24866;50.248;8.252;2022-11-13T15:12:01;12.30;99.90
37408;DHT22;24866;50.248;8.252;2022-11-13T15:14:40;12.70;99.90
37408;DHT22;24866;50.248;8.252;2022-11-13T15:17:14;12.60;99.90
37408;DHT22;24866;50.248;8.252;2022-11-13T15:19:45;11.90;99.90
37408;DHT22;24866;50.248;8.252;2022-11-13T15:22:17;12.10;99.90
37408;DHT22;24866;50.248;8.252;2022-11-13T15:24:47;12.40;99.90
37408;DHT22;24866;50.248;8.252;2022-11-13T15:27:19;12.00;99.90
37408;DHT22;24866;50.248;8.252;2022-11-13T15:29:50;11.80;99.90
37408;DHT22;24866;50.248;8.252;2022-11-13T15:32:20;11.90;99.90
37408;DHT22;24866;50.248;8.252;2022-11-13T15:34:51;11.70;99.90
37408;DHT22;24866;50.248;8.252;2022-11-13T15:37:21;11.50;99.90
37408;DHT22;24866;50.248;8.252;2022-11-13T15:39:51;11.50;99.90
37408;DHT22;24866;50.248;8.252;2022-11-13T15:42:31;11.80;99.90
37408;DHT22;24866;50.248;8.252;2022-11-13T15:45:04;11.80;99.90
37408;DHT22;24866;50.248;8.252;2022-11-13T15:47:34;11.60;99.90
37408;DHT22;24866;50.248;8.252;2022-11-13T15:50:05;11.20;99.90
37408;DHT22;24866;50.248;8.252;2022-11-13T15:52:38;11.30;99.90
37408;DHT22;24866;50.248;8.252;2022-11-13T15:55:20;11.20;99.90
37408;DHT22;24866;50.248;8.252;2022-11-13T15:57:52;11.00;99.90
37408;DHT22;24866;50.248;8.252;2022-11-13T16:00:25;11.00;99.90
37408;DHT22;24866;50.248;8.252;2022-11-13T16:02:57;10.90;99.90
37408;DHT22;24866;50.248;8.252;2022-11-13T16:05:27;11.00;99.90
37408;DHT22;24866;50.248;8.252;2022-11-13T16:07:57;10.90;99.90
37408;DHT22;24866;50.248;8.252;2022-11-13T16:10:27;10.70;99.90
37408;DHT22;24866;50.248;8.252;2022-11-13T16:12:57;10.10;99.90
37408;DHT22;24866;50.248;8.252;2022-11-13T16:15:29;9.90;99.90
37408;DHT22;24866;50.248;8.252;2022-11-13T16:18:00;9.90;99.90